sensor_id;sensor_type;location;lat;lon;timestamp;P1;durP1;ratioP1;P2;durP2;ratioP2
7110;SDS011;3597;42.650;23.386;2024-02-26T00:02:16;6.53;;;4.22;;
7110;SDS011;3597;42.650;23.386;2024-02-26T00:04:42;5.47;;;4.40;;
7110;SDS011;3597;42.650;23.386;2024-02-26T00:07:07;5.15;;;4.65;;
7110;SDS011;3597;42.650;23.386;2024-02-26T00:09:33;5.50;;;5.00;;
7110;SDS011;3597;42.650;23.386;2024-02-26T00:12:04;4.82;;;4.43;;
7110;SDS011;3597;42.650;23.386;2024-02-26T00:14:30;5.45;;;4.65;;
7110;SDS011;3597;42.650;23.386;2024-02-26T00:16:56;7.10;;;4.18;;
7110;SDS011;3597;42.650;23.386;2024-02-26T00:19:22;5.63;;;5.13;;
7110;SDS011;3597;42.650;23.386;2024-02-26T00:21:48;5.90;;;4.43;;
7110;SDS011;3597;42.650;23.386;2024-02-26T00:24:13;9.68;;;4.95;;
7110;SDS011;3597;42.650;23.386;2024-02-26T00:26:39;6.88;;;5.38;;
7110;SDS011;3597;42.650;23.386;2024-02-26T00:29:05;4.95;;;4.30;;
7110;SDS011;3597;42.650;23.386;2024-02-26T00:31:30;5.45;;;4.95;;
7110;SDS011;3597;42.650;23.386;2024-02-26T00:33:56;6.28;;;4.80;;
7110;SDS011;3597;42.650;23.386;2024-02-26T00:36:22;12.27;;;5.15;;
7110;SDS011;3597;42.650;23.386;2024-02-26T00:38:47;6.85;;;5.47;;
7110;SDS011;3597;42.650;23.386;2024-02-26T00:41:19;5.65;;;4.35;;
7110;SDS011;3597;42.650;23.386;2024-02-26T00:43:45;6.18;;;4.65;;
7110;SDS011;3597;42.650;23.386;2024-02-26T00:46:11;6.25;;;5.63;;
7110;SDS011;3597;42.650;23.386;2024-02-26T00:48:37;5.93;;;4.90;;
7110;SDS011;3597;42.650;23.386;2024-02-26T00:51:03;7.15;;;5.20;;
7110;SDS011;3597;42.650;23.386;2024-02-26T00:53:33;7.63;;;5.50;;
7110;SDS011;3597;42.650;23.386;2024-02-26T00:55:59;6.28;;;4.90;;
7110;SDS011;3597;42.650;23.386;2024-02-26T00:58:25;7.80;;;4.57;;
7110;SDS011;3597;42.650;23.386;2024-02-26T01:00:52;5.97;;;5.38;;
7110;SDS011;3597;42.650;23.386;2024-02-26T01:03:17;5.88;;;4.47;;
7110;SDS011;3597;42.650;23.386;2024-02-26T01:05:43;9.07;;;5.22;;
7110;SDS011;3597;42.650;23.386;2024-02-26T01:08:09;5.88;;;5.00;;
7110;SDS011;3597;42.650;23.386;2024-02-26T01:10:35;5.88;;;5.22;;
7110;SDS011;3597;42.650;23.386;2024-02-26T01:13:01;8.48;;;4.47;;
7110;SDS011;3597;42.650;23.386;2024-02-26T01:15:27;6.45;;;4.15;;
7110;SDS011;3597;42.650;23.386;2024-02-26T01:17:52;6.60;;;4.68;;
7110;SDS011;3597;42.650;23.386;2024-02-26T01:20:18;5.40;;;4.78;;
7110;SDS011;3597;42.650;23.386;2024-02-26T01:22:44;7.75;;;4.88;;
7110;SDS011;3597;42.650;23.386;2024-02-26T01:25:10;7.90;;;4.93;;
7110;SDS011;3597;42.650;23.386;2024-02-26T01:27:36;7.35;;;5.68;;
7110;SDS011;3597;42.650;23.386;2024-02-26T01:30:05;7.50;;;5.03;;
7110;SDS011;3597;42.650;23.386;2024-02-26T01:32:31;6.63;;;4.65;;
7110;SDS011;3597;42.650;23.386;2024-02-26T01:34:57;4.68;;;4.20;;
7110;SDS011;3597;42.650;23.386;2024-02-26T01:37:23;7.03;;;5.50;;
7110;SDS011;3597;42.650;23.386;2024-02-26T01:39:48;8.63;;;4.85;;
7110;SDS011;3597;42.650;23.386;2024-02-26T01:42:14;8.00;;;5.03;;
7110;SDS011;3597;42.650;23.386;2024-02-26T01:44:40;5.60;;;4.95;;
7110;SDS011;3597;42.650;23.386;2024-02-26T01:47:07;4.97;;;4.43;;
7110;SDS011;3597;42.650;23.386;2024-02-26T01:49:35;6.30;;;4.65;;
7110;SDS011;3597;42.650;23.386;2024-02-26T01:52:01;5.55;;;4.95;;
7110;SDS011;3597;42.650;23.386;2024-02-26T01:54:29;7.40;;;4.97;;
7110;SDS011;3597;42.650;23.386;2024-02-26T01:56:56;7.65;;;5.40;;
7110;SDS011;3597;42.650;23.386;2024-02-26T01:59:23;5.93;;;4.57;;
7110;SDS011;3597;42.650;23.386;2024-02-26T02:01:53;11.82;;;7.50;;
7110;SDS011;3597;42.650;23.386;2024-02-26T02:04:21;9.30;;;6.07;;
7110;SDS011;3597;42.650;23.386;2024-02-26T02:06:48;5.85;;;3.33;;
7110;SDS011;3597;42.650;23.386;2024-02-26T02:09:14;4.75;;;3.70;;
7110;SDS011;3597;42.650;23.386;2024-02-26T02:11:40;5.18;;;3.28;;
7110;SDS011;3597;42.650;23.386;2024-02-26T02:14:06;5.40;;;3.72;;
7110;SDS011;3597;42.650;23.386;2024-02-26T02:16:32;4.68;;;3.92;;
7110;SDS011;3597;42.650;23.386;2024-02-26T02:18:58;4.82;;;4.18;;
7110;SDS011;3597;42.650;23.386;2024-02-26T02:21:24;7.38;;;4.13;;
7110;SDS011;3597;42.650;23.386;2024-02-26T02:23:49;3.72;;;3.35;;
7110;SDS011;3597;42.650;23.386;2024-02-26T02:26:15;3.33;;;1.58;;
7110;SDS011;3597;42.650;23.386;2024-02-26T02:28:42;1.55;;;1.30;;
7110;SDS011;3597;42.650;23.386;2024-02-26T02:31:08;5.95;;;1.95;;
7110;SDS011;3597;42.650;23.386;2024-02-26T02:33:34;1.75;;;1.35;;
7110;SDS011;3597;42.650;23.386;2024-02-26T02:36:00;1.60;;;1.27;;
7110;SDS011;3597;42.650;23.386;2024-02-26T02:38:26;2.22;;;1.48;;
7110;SDS011;3597;42.650;23.386;2024-02-26T02:40:52;6.03;;;2.50;;
7110;SDS011;3597;42.650;23.386;2024-02-26T02:43:18;3.63;;;2.92;;
7110;SDS011;3597;42.650;23.386;2024-02-26T02:45:44;4.57;;;2.40;;
7110;SDS011;3597;42.650;23.386;2024-02-26T02:48:10;3.65;;;2.25;;
7110;SDS011;3597;42.650;23.386;2024-02-26T02:50:36;5.13;;;2.40;;
7110;SDS011;3597;42.650;23.386;2024-02-26T02:53:01;4.28;;;3.60;;
7110;SDS011;3597;42.650;23.386;2024-02-26T02:55:27;5.03;;;3.50;;
7110;SDS011;3597;42.650;23.386;2024-02-26T02:57:53;4.78;;;3.13;;
7110;SDS011;3597;42.650;23.386;2024-02-26T03:00:19;5.35;;;3.63;;
7110;SDS011;3597;42.650;23.386;2024-02-26T03:02:45;3.47;;;2.75;;
7110;SDS011;3597;42.650;23.386;2024-02-26T03:05:11;5.13;;;2.40;;
7110;SDS011;3597;42.650;23.386;2024-02-26T03:07:37;4.45;;;2.83;;
7110;SDS011;3597;42.650;23.386;2024-02-26T03:10:03;6.25;;;3.28;;
7110;SDS011;3597;42.650;23.386;2024-02-26T03:12:29;3.40;;;2.38;;
7110;SDS011;3597;42.650;23.386;2024-02-26T03:14:55;3.47;;;2.72;;
7110;SDS011;3597;42.650;23.386;2024-02-26T03:17:21;4.82;;;2.33;;
7110;SDS011;3597;42.650;23.386;2024-02-26T03:19:49;3.97;;;2.03;;
7110;SDS011;3597;42.650;23.386;2024-02-26T03:22:18;2.53;;;2.30;;
7110;SDS011;3597;42.650;23.386;2024-02-26T03:24:45;2.97;;;2.22;;
7110;SDS011;3597;42.650;23.386;2024-02-26T03:27:10;3.80;;;2.50;;
7110;SDS011;3597;42.650;23.386;2024-02-26T03:29:37;3.35;;;2.42;;
7110;SDS011;3597;42.650;23.386;2024-02-26T03:32:03;2.42;;;2.20;;
7110;SDS011;3597;42.650;23.386;2024-02-26T03:34:29;2.58;;;2.33;;
7110;SDS011;3597;42.650;23.386;2024-02-26T03:36:56;5.88;;;2.63;;
7110;SDS011;3597;42.650;23.386;2024-02-26T03:39:22;5.05;;;2.47;;
7110;SDS011;3597;42.650;23.386;2024-02-26T03:41:48;6.40;;;3.35;;
7110;SDS011;3597;42.650;23.386;2024-02-26T03:44:14;3.80;;;2.45;;
7110;SDS011;3597;42.650;23.386;2024-02-26T03:46:40;5.45;;;2.92;;
7110;SDS011;3597;42.650;23.386;2024-02-26T03:49:08;3.40;;;3.10;;
7110;SDS011;3597;42.650;23.386;2024-02-26T03:51:34;5.43;;;2.83;;
7110;SDS011;3597;42.650;23.386;2024-02-26T03:53:59;4.68;;;2.70;;
7110;SDS011;3597;42.650;23.386;2024-02-26T03:56:26;4.60;;;3.40;;
7110;SDS011;3597;42.650;23.386;2024-02-26T03:58:52;3.25;;;2.92;;
7110;SDS011;3597;42.650;23.386;2024-02-26T04:01:18;11.48;;;3.88;;
7110;SDS011;3597;42.650;23.386;2024-02-26T04:03:44;7.80;;;4.65;;
7110;SDS011;3597;42.650;23.386;2024-02-26T04:06:10;6.45;;;5.00;;
7110;SDS011;3597;42.650;23.386;2024-02-26T04:08:36;11.05;;;5.70;;
7110;SDS011;3597;42.650;23.386;2024-02-26T04:11:03;11.38;;;5.88;;
7110;SDS011;3597;42.650;23.386;2024-02-26T04:13:35;9.00;;;6.22;;
7110;SDS011;3597;42.650;23.386;2024-02-26T04:16:04;15.25;;;7.90;;
7110;SDS011;3597;42.650;23.386;2024-02-26T04:18:32;12.25;;;7.00;;
7110;SDS011;3597;42.650;23.386;2024-02-26T04:20:58;11.48;;;6.15;;
7110;SDS011;3597;42.650;23.386;2024-02-26T04:23:24;5.97;;;4.60;;
7110;SDS011;3597;42.650;23.386;2024-02-26T04:25:50;5.05;;;3.70;;
7110;SDS011;3597;42.650;23.386;2024-02-26T04:28:18;5.95;;;3.70;;
7110;SDS011;3597;42.650;23.386;2024-02-26T04:30:46;7.28;;;3.90;;
7110;SDS011;3597;42.650;23.386;2024-02-26T04:33:13;6.35;;;4.65;;
7110;SDS011;3597;42.650;23.386;2024-02-26T04:35:39;7.60;;;6.90;;
7110;SDS011;3597;42.650;23.386;2024-02-26T04:38:04;6.68;;;5.45;;
7110;SDS011;3597;42.650;23.386;2024-02-26T04:40:30;8.00;;;6.82;;
7110;SDS011;3597;42.650;23.386;2024-02-26T04:42:56;8.35;;;5.55;;
7110;SDS011;3597;42.650;23.386;2024-02-26T04:45:22;8.15;;;4.68;;
7110;SDS011;3597;42.650;23.386;2024-02-26T04:47:48;6.78;;;3.63;;
7110;SDS011;3597;42.650;23.386;2024-02-26T04:50:13;5.70;;;3.72;;
7110;SDS011;3597;42.650;23.386;2024-02-26T04:52:39;4.60;;;3.65;;
7110;SDS011;3597;42.650;23.386;2024-02-26T04:55:05;5.93;;;4.28;;
7110;SDS011;3597;42.650;23.386;2024-02-26T04:57:31;11.13;;;4.80;;
7110;SDS011;3597;42.650;23.386;2024-02-26T04:59:56;5.45;;;3.67;;
7110;SDS011;3597;42.650;23.386;2024-02-26T05:02:22;4.15;;;3.70;;
7110;SDS011;3597;42.650;23.386;2024-02-26T05:04:47;4.28;;;3.38;;
7110;SDS011;3597;42.650;23.386;2024-02-26T05:07:15;3.55;;;3.10;;
7110;SDS011;3597;42.650;23.386;2024-02-26T05:09:42;4.63;;;3.20;;
7110;SDS011;3597;42.650;23.386;2024-02-26T05:12:09;3.78;;;3.15;;
7110;SDS011;3597;42.650;23.386;2024-02-26T05:14:35;3.40;;;3.10;;
7110;SDS011;3597;42.650;23.386;2024-02-26T05:17:00;5.55;;;3.22;;
7110;SDS011;3597;42.650;23.386;2024-02-26T05:19:26;3.75;;;3.40;;
7110;SDS011;3597;42.650;23.386;2024-02-26T05:21:52;4.85;;;3.92;;
7110;SDS011;3597;42.650;23.386;2024-02-26T05:24:18;5.95;;;3.13;;
7110;SDS011;3597;42.650;23.386;2024-02-26T05:26:44;3.60;;;2.83;;
7110;SDS011;3597;42.650;23.386;2024-02-26T05:29:10;5.80;;;3.40;;
7110;SDS011;3597;42.650;23.386;2024-02-26T05:31:36;6.35;;;3.75;;
7110;SDS011;3597;42.650;23.386;2024-02-26T05:34:02;4.45;;;3.33;;
7110;SDS011;3597;42.650;23.386;2024-02-26T05:36:27;5.18;;;3.72;;
7110;SDS011;3597;42.650;23.386;2024-02-26T05:38:58;3.47;;;3.17;;
7110;SDS011;3597;42.650;23.386;2024-02-26T05:41:25;4.05;;;3.03;;
7110;SDS011;3597;42.650;23.386;2024-02-26T05:43:52;6.10;;;3.55;;
7110;SDS011;3597;42.650;23.386;2024-02-26T05:46:18;5.15;;;3.22;;
7110;SDS011;3597;42.650;23.386;2024-02-26T05:48:46;6.43;;;3.30;;
7110;SDS011;3597;42.650;23.386;2024-02-26T05:51:13;7.47;;;3.45;;
7110;SDS011;3597;42.650;23.386;2024-02-26T05:53:40;3.88;;;3.30;;
7110;SDS011;3597;42.650;23.386;2024-02-26T05:56:06;4.30;;;3.35;;
7110;SDS011;3597;42.650;23.386;2024-02-26T05:58:31;14.55;;;12.60;;
7110;SDS011;3597;42.650;23.386;2024-02-26T06:00:57;4.72;;;3.55;;
7110;SDS011;3597;42.650;23.386;2024-02-26T06:03:23;4.65;;;3.38;;
7110;SDS011;3597;42.650;23.386;2024-02-26T06:05:48;4.47;;;2.90;;
7110;SDS011;3597;42.650;23.386;2024-02-26T06:08:14;4.03;;;3.00;;
7110;SDS011;3597;42.650;23.386;2024-02-26T06:10:39;4.78;;;3.83;;
7110;SDS011;3597;42.650;23.386;2024-02-26T06:13:05;4.60;;;3.72;;
7110;SDS011;3597;42.650;23.386;2024-02-26T06:15:31;6.90;;;4.90;;
7110;SDS011;3597;42.650;23.386;2024-02-26T06:17:56;6.68;;;4.50;;
7110;SDS011;3597;42.650;23.386;2024-02-26T06:20:22;7.38;;;4.18;;
7110;SDS011;3597;42.650;23.386;2024-02-26T06:22:48;6.15;;;4.30;;
7110;SDS011;3597;42.650;23.386;2024-02-26T06:25:13;7.38;;;3.78;;
7110;SDS011;3597;42.650;23.386;2024-02-26T06:27:39;5.95;;;4.13;;
7110;SDS011;3597;42.650;23.386;2024-02-26T06:30:05;5.80;;;3.63;;
7110;SDS011;3597;42.650;23.386;2024-02-26T06:32:31;8.80;;;4.13;;
7110;SDS011;3597;42.650;23.386;2024-02-26T06:34:57;5.28;;;3.10;;
7110;SDS011;3597;42.650;23.386;2024-02-26T06:37:22;4.65;;;3.20;;
7110;SDS011;3597;42.650;23.386;2024-02-26T06:39:48;3.38;;;3.08;;
7110;SDS011;3597;42.650;23.386;2024-02-26T06:42:14;8.63;;;5.78;;
7110;SDS011;3597;42.650;23.386;2024-02-26T06:44:39;10.45;;;7.68;;
7110;SDS011;3597;42.650;23.386;2024-02-26T06:47:05;6.40;;;4.93;;
7110;SDS011;3597;42.650;23.386;2024-02-26T06:49:31;7.15;;;4.80;;
7110;SDS011;3597;42.650;23.386;2024-02-26T06:51:56;8.27;;;5.68;;
7110;SDS011;3597;42.650;23.386;2024-02-26T06:54:22;5.13;;;4.72;;
7110;SDS011;3597;42.650;23.386;2024-02-26T06:56:47;7.60;;;5.28;;
7110;SDS011;3597;42.650;23.386;2024-02-26T06:59:13;4.78;;;3.92;;
7110;SDS011;3597;42.650;23.386;2024-02-26T07:01:42;3.80;;;3.42;;
7110;SDS011;3597;42.650;23.386;2024-02-26T07:04:07;4.47;;;3.15;;
7110;SDS011;3597;42.650;23.386;2024-02-26T07:06:33;3.65;;;3.35;;
7110;SDS011;3597;42.650;23.386;2024-02-26T07:08:59;7.63;;;6.05;;
7110;SDS011;3597;42.650;23.386;2024-02-26T07:11:25;9.10;;;7.07;;
7110;SDS011;3597;42.650;23.386;2024-02-26T07:13:50;9.75;;;8.18;;
7110;SDS011;3597;42.650;23.386;2024-02-26T07:16:16;9.90;;;7.20;;
7110;SDS011;3597;42.650;23.386;2024-02-26T07:18:41;6.53;;;4.40;;
7110;SDS011;3597;42.650;23.386;2024-02-26T07:21:08;7.85;;;6.43;;
7110;SDS011;3597;42.650;23.386;2024-02-26T07:23:34;5.43;;;4.90;;
7110;SDS011;3597;42.650;23.386;2024-02-26T07:26:00;4.15;;;3.63;;
7110;SDS011;3597;42.650;23.386;2024-02-26T07:28:26;6.80;;;5.65;;
7110;SDS011;3597;42.650;23.386;2024-02-26T07:30:51;6.40;;;5.90;;
7110;SDS011;3597;42.650;23.386;2024-02-26T07:33:17;9.13;;;7.90;;
7110;SDS011;3597;42.650;23.386;2024-02-26T07:35:43;8.15;;;5.03;;
7110;SDS011;3597;42.650;23.386;2024-02-26T07:38:08;4.95;;;3.85;;
7110;SDS011;3597;42.650;23.386;2024-02-26T07:40:34;6.13;;;5.10;;
7110;SDS011;3597;42.650;23.386;2024-02-26T07:42:59;5.53;;;3.60;;
7110;SDS011;3597;42.650;23.386;2024-02-26T07:45:25;5.13;;;3.80;;
7110;SDS011;3597;42.650;23.386;2024-02-26T07:47:51;4.88;;;4.20;;
7110;SDS011;3597;42.650;23.386;2024-02-26T07:50:17;3.63;;;3.33;;
7110;SDS011;3597;42.650;23.386;2024-02-26T07:52:43;6.35;;;4.45;;
7110;SDS011;3597;42.650;23.386;2024-02-26T07:55:09;4.25;;;3.17;;
7110;SDS011;3597;42.650;23.386;2024-02-26T07:57:35;4.57;;;3.45;;
7110;SDS011;3597;42.650;23.386;2024-02-26T08:00:02;7.28;;;3.65;;
7110;SDS011;3597;42.650;23.386;2024-02-26T08:02:28;6.55;;;5.88;;
7110;SDS011;3597;42.650;23.386;2024-02-26T08:04:54;8.30;;;3.90;;
7110;SDS011;3597;42.650;23.386;2024-02-26T08:07:19;5.18;;;3.47;;
7110;SDS011;3597;42.650;23.386;2024-02-26T08:09:48;5.15;;;4.75;;
7110;SDS011;3597;42.650;23.386;2024-02-26T08:12:14;5.03;;;3.85;;
7110;SDS011;3597;42.650;23.386;2024-02-26T08:14:39;8.10;;;4.15;;
7110;SDS011;3597;42.650;23.386;2024-02-26T08:17:06;5.13;;;4.28;;
7110;SDS011;3597;42.650;23.386;2024-02-26T08:19:31;4.50;;;3.95;;
7110;SDS011;3597;42.650;23.386;2024-02-26T08:21:57;5.45;;;3.70;;
7110;SDS011;3597;42.650;23.386;2024-02-26T08:24:23;6.60;;;4.57;;
7110;SDS011;3597;42.650;23.386;2024-02-26T08:26:49;4.72;;;3.75;;
7110;SDS011;3597;42.650;23.386;2024-02-26T08:29:14;6.10;;;4.28;;
7110;SDS011;3597;42.650;23.386;2024-02-26T08:31:40;5.07;;;4.25;;
7110;SDS011;3597;42.650;23.386;2024-02-26T08:34:06;8.02;;;4.50;;
7110;SDS011;3597;42.650;23.386;2024-02-26T08:36:33;6.68;;;5.47;;
7110;SDS011;3597;42.650;23.386;2024-02-26T08:38:59;9.55;;;8.63;;
7110;SDS011;3597;42.650;23.386;2024-02-26T08:41:25;7.72;;;4.97;;
7110;SDS011;3597;42.650;23.386;2024-02-26T08:43:51;7.07;;;6.20;;
7110;SDS011;3597;42.650;23.386;2024-02-26T08:46:16;9.90;;;6.75;;
7110;SDS011;3597;42.650;23.386;2024-02-26T08:48:43;10.35;;;5.60;;
7110;SDS011;3597;42.650;23.386;2024-02-26T08:51:09;5.03;;;4.38;;
7110;SDS011;3597;42.650;23.386;2024-02-26T08:53:35;12.07;;;5.70;;
7110;SDS011;3597;42.650;23.386;2024-02-26T08:56:01;7.00;;;5.30;;
7110;SDS011;3597;42.650;23.386;2024-02-26T08:58:27;8.02;;;6.90;;
7110;SDS011;3597;42.650;23.386;2024-02-26T09:00:54;5.53;;;4.80;;
7110;SDS011;3597;42.650;23.386;2024-02-26T09:03:19;7.93;;;4.93;;
7110;SDS011;3597;42.650;23.386;2024-02-26T09:05:45;5.93;;;4.47;;
7110;SDS011;3597;42.650;23.386;2024-02-26T09:08:11;6.07;;;5.00;;
7110;SDS011;3597;42.650;23.386;2024-02-26T09:10:37;6.60;;;4.93;;
7110;SDS011;3597;42.650;23.386;2024-02-26T09:13:03;6.13;;;4.53;;
7110;SDS011;3597;42.650;23.386;2024-02-26T09:15:29;7.65;;;5.50;;
7110;SDS011;3597;42.650;23.386;2024-02-26T09:17:55;7.15;;;4.18;;
7110;SDS011;3597;42.650;23.386;2024-02-26T09:20:20;7.15;;;5.00;;
7110;SDS011;3597;42.650;23.386;2024-02-26T09:22:47;4.72;;;4.25;;
7110;SDS011;3597;42.650;23.386;2024-02-26T09:25:13;8.38;;;5.13;;
7110;SDS011;3597;42.650;23.386;2024-02-26T09:27:41;6.20;;;4.05;;
7110;SDS011;3597;42.650;23.386;2024-02-26T09:30:10;5.53;;;3.78;;
7110;SDS011;3597;42.650;23.386;2024-02-26T09:32:37;7.72;;;4.70;;
7110;SDS011;3597;42.650;23.386;2024-02-26T09:35:03;6.32;;;4.30;;
7110;SDS011;3597;42.650;23.386;2024-02-26T09:37:29;10.18;;;5.57;;
7110;SDS011;3597;42.650;23.386;2024-02-26T09:39:55;6.13;;;4.50;;
7110;SDS011;3597;42.650;23.386;2024-02-26T09:42:20;14.88;;;6.43;;
7110;SDS011;3597;42.650;23.386;2024-02-26T09:44:51;10.82;;;5.15;;
7110;SDS011;3597;42.650;23.386;2024-02-26T09:47:26;7.22;;;3.90;;
7110;SDS011;3597;42.650;23.386;2024-02-26T09:49:53;5.47;;;4.18;;
7110;SDS011;3597;42.650;23.386;2024-02-26T09:52:21;7.82;;;3.78;;
7110;SDS011;3597;42.650;23.386;2024-02-26T09:54:48;4.35;;;3.45;;
7110;SDS011;3597;42.650;23.386;2024-02-26T09:57:15;5.40;;;3.30;;
7110;SDS011;3597;42.650;23.386;2024-02-26T09:59:42;6.32;;;4.95;;
7110;SDS011;3597;42.650;23.386;2024-02-26T10:02:11;4.00;;;3.47;;
7110;SDS011;3597;42.650;23.386;2024-02-26T10:04:41;9.40;;;4.75;;
7110;SDS011;3597;42.650;23.386;2024-02-26T10:07:11;3.50;;;3.20;;
7110;SDS011;3597;42.650;23.386;2024-02-26T10:09:38;4.55;;;3.42;;
7110;SDS011;3597;42.650;23.386;2024-02-26T10:12:04;4.63;;;4.07;;
7110;SDS011;3597;42.650;23.386;2024-02-26T10:14:32;8.73;;;2.92;;
7110;SDS011;3597;42.650;23.386;2024-02-26T10:16:58;3.92;;;3.33;;
7110;SDS011;3597;42.650;23.386;2024-02-26T10:19:27;6.25;;;3.67;;
7110;SDS011;3597;42.650;23.386;2024-02-26T10:21:57;8.35;;;3.55;;
7110;SDS011;3597;42.650;23.386;2024-02-26T10:24:27;5.20;;;3.80;;
7110;SDS011;3597;42.650;23.386;2024-02-26T10:26:54;4.70;;;3.70;;
7110;SDS011;3597;42.650;23.386;2024-02-26T10:29:21;6.95;;;3.67;;
7110;SDS011;3597;42.650;23.386;2024-02-26T10:31:50;4.72;;;3.60;;
7110;SDS011;3597;42.650;23.386;2024-02-26T10:34:16;8.23;;;3.60;;
7110;SDS011;3597;42.650;23.386;2024-02-26T10:36:42;6.68;;;3.88;;
7110;SDS011;3597;42.650;23.386;2024-02-26T10:39:09;3.40;;;3.00;;
7110;SDS011;3597;42.650;23.386;2024-02-26T10:41:36;4.72;;;3.78;;
7110;SDS011;3597;42.650;23.386;2024-02-26T10:44:03;3.70;;;3.40;;
7110;SDS011;3597;42.650;23.386;2024-02-26T10:46:29;4.68;;;4.25;;
7110;SDS011;3597;42.650;23.386;2024-02-26T10:48:54;7.03;;;3.78;;
7110;SDS011;3597;42.650;23.386;2024-02-26T10:51:28;3.72;;;3.40;;
7110;SDS011;3597;42.650;23.386;2024-02-26T10:53:56;4.78;;;3.65;;
7110;SDS011;3597;42.650;23.386;2024-02-26T10:56:28;5.47;;;3.35;;
7110;SDS011;3597;42.650;23.386;2024-02-26T10:58:54;3.58;;;3.28;;
7110;SDS011;3597;42.650;23.386;2024-02-26T11:01:21;4.60;;;3.90;;
7110;SDS011;3597;42.650;23.386;2024-02-26T11:03:50;4.32;;;3.17;;
7110;SDS011;3597;42.650;23.386;2024-02-26T11:06:17;4.43;;;3.55;;
7110;SDS011;3597;42.650;23.386;2024-02-26T11:08:44;4.20;;;3.50;;
7110;SDS011;3597;42.650;23.386;2024-02-26T11:11:13;7.13;;;4.05;;
7110;SDS011;3597;42.650;23.386;2024-02-26T11:13:40;5.72;;;4.30;;
7110;SDS011;3597;42.650;23.386;2024-02-26T11:16:11;6.22;;;4.05;;
7110;SDS011;3597;42.650;23.386;2024-02-26T11:18:38;4.97;;;3.40;;
7110;SDS011;3597;42.650;23.386;2024-02-26T11:21:07;7.78;;;4.30;;
7110;SDS011;3597;42.650;23.386;2024-02-26T11:23:33;6.40;;;3.70;;
7110;SDS011;3597;42.650;23.386;2024-02-26T11:26:02;4.80;;;3.40;;
7110;SDS011;3597;42.650;23.386;2024-02-26T11:28:30;5.70;;;3.40;;
7110;SDS011;3597;42.650;23.386;2024-02-26T11:30:59;4.18;;;3.42;;
7110;SDS011;3597;42.650;23.386;2024-02-26T11:33:28;4.68;;;3.50;;
7110;SDS011;3597;42.650;23.386;2024-02-26T11:35:54;5.47;;;3.90;;
7110;SDS011;3597;42.650;23.386;2024-02-26T11:38:21;8.45;;;5.03;;
7110;SDS011;3597;42.650;23.386;2024-02-26T11:40:48;4.75;;;4.25;;
7110;SDS011;3597;42.650;23.386;2024-02-26T11:43:15;5.75;;;4.68;;
7110;SDS011;3597;42.650;23.386;2024-02-26T11:48:21;7.45;;;3.17;;
7110;SDS011;3597;42.650;23.386;2024-02-26T11:50:49;8.27;;;3.60;;
7110;SDS011;3597;42.650;23.386;2024-02-26T11:53:29;6.53;;;3.58;;
7110;SDS011;3597;42.650;23.386;2024-02-26T11:59:01;6.03;;;3.53;;
7110;SDS011;3597;42.650;23.386;2024-02-26T12:01:36;5.25;;;3.63;;
7110;SDS011;3597;42.650;23.386;2024-02-26T12:04:23;5.68;;;4.20;;
7110;SDS011;3597;42.650;23.386;2024-02-26T12:06:52;5.55;;;4.00;;
7110;SDS011;3597;42.650;23.386;2024-02-26T12:12:03;4.43;;;3.53;;
7110;SDS011;3597;42.650;23.386;2024-02-26T12:14:32;5.30;;;3.55;;
7110;SDS011;3597;42.650;23.386;2024-02-26T12:16:59;4.18;;;3.85;;
7110;SDS011;3597;42.650;23.386;2024-02-26T12:19:25;5.40;;;3.42;;
7110;SDS011;3597;42.650;23.386;2024-02-26T12:21:52;5.32;;;3.15;;
7110;SDS011;3597;42.650;23.386;2024-02-26T12:24:20;6.38;;;4.63;;
7110;SDS011;3597;42.650;23.386;2024-02-26T12:26:46;5.25;;;3.75;;
7110;SDS011;3597;42.650;23.386;2024-02-26T12:29:12;4.78;;;3.55;;
7110;SDS011;3597;42.650;23.386;2024-02-26T12:31:39;6.45;;;3.58;;
7110;SDS011;3597;42.650;23.386;2024-02-26T12:34:06;3.22;;;2.83;;
7110;SDS011;3597;42.650;23.386;2024-02-26T12:36:35;7.15;;;3.47;;
7110;SDS011;3597;42.650;23.386;2024-02-26T12:39:04;4.97;;;2.85;;
7110;SDS011;3597;42.650;23.386;2024-02-26T12:41:34;3.83;;;3.10;;
7110;SDS011;3597;42.650;23.386;2024-02-26T12:44:00;4.30;;;3.25;;
7110;SDS011;3597;42.650;23.386;2024-02-26T12:46:26;6.07;;;3.22;;
7110;SDS011;3597;42.650;23.386;2024-02-26T12:48:51;6.13;;;2.78;;
7110;SDS011;3597;42.650;23.386;2024-02-26T12:51:19;6.57;;;3.00;;
7110;SDS011;3597;42.650;23.386;2024-02-26T12:53:45;4.97;;;3.10;;
7110;SDS011;3597;42.650;23.386;2024-02-26T12:56:11;4.25;;;2.95;;
7110;SDS011;3597;42.650;23.386;2024-02-26T12:58:38;9.48;;;3.72;;
7110;SDS011;3597;42.650;23.386;2024-02-26T13:01:05;4.60;;;2.95;;
7110;SDS011;3597;42.650;23.386;2024-02-26T13:03:34;4.28;;;3.28;;
7110;SDS011;3597;42.650;23.386;2024-02-26T13:06:02;3.33;;;3.00;;
7110;SDS011;3597;42.650;23.386;2024-02-26T13:08:29;3.97;;;2.65;;
7110;SDS011;3597;42.650;23.386;2024-02-26T13:10:55;6.00;;;2.90;;
7110;SDS011;3597;42.650;23.386;2024-02-26T13:13:20;3.85;;;2.53;;
7110;SDS011;3597;42.650;23.386;2024-02-26T13:15:47;6.25;;;2.72;;
7110;SDS011;3597;42.650;23.386;2024-02-26T13:18:13;4.72;;;2.90;;
7110;SDS011;3597;42.650;23.386;2024-02-26T13:20:42;5.05;;;2.78;;
7110;SDS011;3597;42.650;23.386;2024-02-26T13:23:11;5.57;;;3.08;;
7110;SDS011;3597;42.650;23.386;2024-02-26T13:25:37;5.97;;;2.63;;
7110;SDS011;3597;42.650;23.386;2024-02-26T13:28:07;2.67;;;2.17;;
7110;SDS011;3597;42.650;23.386;2024-02-26T13:30:52;5.78;;;3.95;;
7110;SDS011;3597;42.650;23.386;2024-02-26T13:33:18;10.50;;;6.40;;
7110;SDS011;3597;42.650;23.386;2024-02-26T13:37:59;8.48;;;5.75;;
7110;SDS011;3597;42.650;23.386;2024-02-26T13:40:24;10.02;;;6.25;;
7110;SDS011;3597;42.650;23.386;2024-02-26T13:42:50;6.90;;;6.28;;
7110;SDS011;3597;42.650;23.386;2024-02-26T13:45:17;8.23;;;7.35;;
7110;SDS011;3597;42.650;23.386;2024-02-26T13:47:43;9.02;;;8.05;;
7110;SDS011;3597;42.650;23.386;2024-02-26T13:50:09;7.93;;;7.03;;
7110;SDS011;3597;42.650;23.386;2024-02-26T13:52:35;8.38;;;7.13;;
7110;SDS011;3597;42.650;23.386;2024-02-26T13:55:01;7.82;;;7.03;;
7110;SDS011;3597;42.650;23.386;2024-02-26T13:57:27;11.00;;;9.20;;
7110;SDS011;3597;42.650;23.386;2024-02-26T13:59:54;11.80;;;7.00;;
7110;SDS011;3597;42.650;23.386;2024-02-26T14:02:20;8.13;;;7.32;;
7110;SDS011;3597;42.650;23.386;2024-02-26T14:04:46;12.57;;;7.57;;
7110;SDS011;3597;42.650;23.386;2024-02-26T14:07:12;10.07;;;7.93;;
7110;SDS011;3597;42.650;23.386;2024-02-26T14:09:37;9.82;;;8.82;;
7110;SDS011;3597;42.650;23.386;2024-02-26T14:12:03;12.57;;;8.15;;
7110;SDS011;3597;42.650;23.386;2024-02-26T14:14:29;11.88;;;7.82;;
7110;SDS011;3597;42.650;23.386;2024-02-26T14:17:00;8.68;;;7.85;;
7110;SDS011;3597;42.650;23.386;2024-02-26T14:19:26;8.45;;;7.32;;
7110;SDS011;3597;42.650;23.386;2024-02-26T14:21:52;9.75;;;7.65;;
7110;SDS011;3597;42.650;23.386;2024-02-26T14:24:17;10.55;;;8.07;;
7110;SDS011;3597;42.650;23.386;2024-02-26T14:26:43;9.13;;;7.32;;
7110;SDS011;3597;42.650;23.386;2024-02-26T14:29:09;10.27;;;9.18;;
7110;SDS011;3597;42.650;23.386;2024-02-26T14:31:34;10.77;;;9.25;;
7110;SDS011;3597;42.650;23.386;2024-02-26T14:34:00;11.82;;;8.88;;
7110;SDS011;3597;42.650;23.386;2024-02-26T14:36:26;14.82;;;10.05;;
7110;SDS011;3597;42.650;23.386;2024-02-26T14:38:51;9.50;;;8.50;;
7110;SDS011;3597;42.650;23.386;2024-02-26T14:41:17;12.98;;;9.00;;
7110;SDS011;3597;42.650;23.386;2024-02-26T14:43:43;10.95;;;9.05;;
7110;SDS011;3597;42.650;23.386;2024-02-26T14:46:08;11.07;;;9.93;;
7110;SDS011;3597;42.650;23.386;2024-02-26T14:48:34;11.32;;;9.40;;
7110;SDS011;3597;42.650;23.386;2024-02-26T14:51:00;14.73;;;10.02;;
7110;SDS011;3597;42.650;23.386;2024-02-26T14:53:26;12.13;;;9.57;;
7110;SDS011;3597;42.650;23.386;2024-02-26T14:55:52;13.77;;;10.80;;
7110;SDS011;3597;42.650;23.386;2024-02-26T14:58:17;25.88;;;10.30;;
7110;SDS011;3597;42.650;23.386;2024-02-26T15:00:43;12.77;;;10.63;;
7110;SDS011;3597;42.650;23.386;2024-02-26T15:03:09;12.63;;;10.20;;
7110;SDS011;3597;42.650;23.386;2024-02-26T15:05:34;13.18;;;11.05;;
7110;SDS011;3597;42.650;23.386;2024-02-26T15:08:01;12.65;;;11.18;;